Guemes, Washington
Current Conditions -  °F | °C
As of 12:56 AM on Thursday 23 Oct 2014 (Local Time) from KNUW Reporting Station
Broken Clouds Broken Clouds  
Wind Chill: 55°   Ceiling: 2600
Heat Index: 55°   Visibility: 10mi
Dew Point: 51°   Wind: 5mph
Humidity: 86%   Direction: 260°W
Pressure: 29.68"   Gusts: NA
Location:  48.4652°N, 122.617°W
Report Text: KNUW 230756Z 26004KT 10SM SCT015 BKN026 BKN040 13/11 A2968 RMK AO2 SLP054 OCNL LTGICCC DSNT NE CB DSNT NE T01280106
Loading
Personal Weather Stations






























Interactive Weather Map New forecast layout! Learn more

10-Day Weather Forecast

Advertisements
Track Severe Weather on mobile